Spirit Of Alaska — WBF9523 — position and weather

sailwx.info

Track history (hours):
 
Tides and Currents Weather Stations Pressure Air Temp Water Temp Dewpoint Dewpoint Depression Visibility Wind Speed Wind Dir Waves Ship Positions

Spirit Of Alaska

Owner: Cruise West, SEATTLE, WA. More information available from US FCC via Universal Licensing System and Coast Guard Vessel Documentation Center.

Last reported at 2011-Jan-08 13:30 UTC. Time now 2019-Jul-16 10:36 UTC.
Position N 49°14' W 123°43'.
Warning: this ship's position is years out of date!

Length 40 m; draft 0.24 m.

Type: Passenger vessel. MMSI: 367175290.

Date/timePositionNaut miles runAvg speedWind from/ knotsBaromVisibWave heightAir tempDewpointWater temp
2011-Jan-08 13:30N 49°14' W 123°43'10 8.9
2011-Jan-08 12:25N 49°07' W 123°33'11 9.4
2011-Jan-08 11:17N 48°58' W 123°24'12 6.2
2011-Jan-08 09:23N 48°46' W 123°20'7 8.1
2011-Jan-08 08:29N 48°40' W 123°14'7 7.0
2011-Jan-08 07:28N 48°33' W 123°12'41 5.5
2011-Jan-08 00:02N 48°00' W 122°36'14 5.4
2011-Jan-07 21:29N 47°48' W 122°25'2 9.2
2011-Jan-07 21:15N 47°46' W 122°25'4 4.1
2011-Jan-07 20:11N 47°42' W 122°25'1 7.3
2011-Jan-07 19:59N 47°41' W 122°25'1 0.7
2011-Jan-07 18:34N 47°40' W 122°24'0 0.0
2011-Jan-07 18:29N 47°40' W 122°24'0 0.0
2011-Jan-07 17:24N 47°40' W 122°24'0 0.0
2011-Jan-07 16:04N 47°40' W 122°24'0 0.1
2011-Jan-07 15:29N 47°40' W 122°23'0 0.0
2011-Jan-07 13:58N 47°40' W 122°24'0 0.0
2011-Jan-07 12:18N 47°40' W 122°24'0 0.0
2011-Jan-07 11:03N 47°40' W 122°24'0 0.0
2011-Jan-07 09:22N 47°40' W 122°23'0 0.0
2011-Jan-07 07:42N 47°40' W 122°24'0 0.0
2011-Jan-07 07:33N 47°40' W 122°24'0 0.0
2011-Jan-07 06:22N 47°40' W 122°23'0 0.0
2011-Jan-07 05:07N 47°40' W 122°24'0 0.0
2011-Jan-07 03:31N 47°40' W 122°24'0 0.0
2011-Jan-07 02:26N 47°40' W 122°24'0 0.0
2011-Jan-07 01:06N 47°40' W 122°24'0 0.0
2011-Jan-06 23:46N 47°40' W 122°24'0 0.0
2011-Jan-06 23:31N 47°40' W 122°24'0 0.0
2011-Jan-06 22:25N 47°40' W 122°24'0 0.0
2011-Jan-06 21:15N 47°40' W 122°23'0 0.0
2011-Jan-06 19:55N 47°40' W 122°24'0 0.0
2011-Jan-06 18:25N 47°40' W 122°24'0 0.0
2011-Jan-05 23:36N 47°40' W 122°24'0 0.2
2011-Jan-05 23:31N 47°40' W 122°24'0 0.1
2011-Jan-05 22:26N 47°40' W 122°24'0 0.0
2011-Jan-05 21:11N 47°40' W 122°24'0 0.0
2011-Jan-05 19:51N 47°40' W 122°24'0 0.0
2011-Jan-04 22:14N 47°40' W 122°24'0 0.1
2011-Jan-04 20:39N 47°40' W 122°23'0 0.0
2011-Jan-04 20:29N 47°40' W 122°23'0 0.0
2011-Jan-04 17:08N 47°40' W 122°24'  
Track history (hours):
 
Tides and Currents Weather Stations Pressure Air Temp Water Temp Dewpoint Dewpoint Depression Visibility Wind Speed Wind Dir Waves Ship Positions

Spirit Of Alaska

Owner: Cruise West, SEATTLE, WA. More information available from US FCC via Universal Licensing System and Coast Guard Vessel Documentation Center.

Last reported at 2011-Jan-08 13:30 UTC. Time now 2019-Jul-16 10:36 UTC.
Position N 49°14' W 123°43'.
Warning: this ship's position is years out of date!

Length 40 m; draft 0.24 m.

Type: Passenger vessel. MMSI: 367175290.

Date/timePositionNaut miles runAvg speedWind from/ knotsBaromVisibWave heightAir tempDewpointWater temp
2011-Jan-08 13:30N 49°14' W 123°43'10 8.9
2011-Jan-08 12:25N 49°07' W 123°33'11 9.4
2011-Jan-08 11:17N 48°58' W 123°24'12 6.2
2011-Jan-08 09:23N 48°46' W 123°20'7 8.1
2011-Jan-08 08:29N 48°40' W 123°14'7 7.0
2011-Jan-08 07:28N 48°33' W 123°12'41 5.5
2011-Jan-08 00:02N 48°00' W 122°36'14 5.4
2011-Jan-07 21:29N 47°48' W 122°25'2 9.2
2011-Jan-07 21:15N 47°46' W 122°25'4 4.1
2011-Jan-07 20:11N 47°42' W 122°25'1 7.3
2011-Jan-07 19:59N 47°41' W 122°25'1 0.7
2011-Jan-07 18:34N 47°40' W 122°24'0 0.0
2011-Jan-07 18:29N 47°40' W 122°24'0 0.0
2011-Jan-07 17:24N 47°40' W 122°24'0 0.0
2011-Jan-07 16:04N 47°40' W 122°24'0 0.1
2011-Jan-07 15:29N 47°40' W 122°23'0 0.0
2011-Jan-07 13:58N 47°40' W 122°24'0 0.0
2011-Jan-07 12:18N 47°40' W 122°24'0 0.0
2011-Jan-07 11:03N 47°40' W 122°24'0 0.0
2011-Jan-07 09:22N 47°40' W 122°23'0 0.0
2011-Jan-07 07:42N 47°40' W 122°24'0 0.0
2011-Jan-07 07:33N 47°40' W 122°24'0 0.0
2011-Jan-07 06:22N 47°40' W 122°23'0 0.0
2011-Jan-07 05:07N 47°40' W 122°24'0 0.0
2011-Jan-07 03:31N 47°40' W 122°24'0 0.0
2011-Jan-07 02:26N 47°40' W 122°24'0 0.0
2011-Jan-07 01:06N 47°40' W 122°24'0 0.0
2011-Jan-06 23:46N 47°40' W 122°24'0 0.0
2011-Jan-06 23:31N 47°40' W 122°24'0 0.0
2011-Jan-06 22:25N 47°40' W 122°24'0 0.0
2011-Jan-06 21:15N 47°40' W 122°23'0 0.0
2011-Jan-06 19:55N 47°40' W 122°24'0 0.0
2011-Jan-06 18:25N 47°40' W 122°24'0 0.0
2011-Jan-05 23:36N 47°40' W 122°24'0 0.2
2011-Jan-05 23:31N 47°40' W 122°24'0 0.1
2011-Jan-05 22:26N 47°40' W 122°24'0 0.0
2011-Jan-05 21:11N 47°40' W 122°24'0 0.0
2011-Jan-05 19:51N 47°40' W 122°24'0 0.0
2011-Jan-04 22:14N 47°40' W 122°24'0 0.1
2011-Jan-04 20:39N 47°40' W 122°23'0 0.0
2011-Jan-04 20:29N 47°40' W 122°23'0 0.0
2011-Jan-04 17:08N 47°40' W 122°24'  

Dump ship's entire track history